Weather observations for the past three days for
Coffeyville, Coffeyville Municipal Airport
Metric (Imperial)
Date Time (cdt) Wind (kph) Vis. (km) Weather Sky Cond. Temperature (ºC) Relative Humidity Wind Chill (°C) Heat Index (°C) Pressure Precipitation (cm)
Air Dwpt 6 hour altimeter (cm) sea level (mb) 1 hr 3 hr 6 hr
Max. Min.
05 08:52 S 13 16.09 Fair CLR 28.9 20.6 61% 31 76.1 1013.7
05 07:52 S 6 16.09 Fair CLR 25 19.4 71% 26 76.05 1013.0
05 06:52 S 6 16.09 Fair CLR 23.3 18.9 26.1 22.2 76% 76 1012.2
05 05:52 Calm 16.09 Fair CLR 23.3 18.9 76% 76.02 1012.4
05 04:52 Calm 16.09 Fair CLR 23.3 18.9 76% 76 1012.3
05 03:52 Calm 16.09 Fair CLR 25 18.9 69% 26 75.97 1012.0
05 02:52 Calm 16.09 Fair CLR 26.1 18.9 65% 27 75.97 1011.9
05 01:52 Calm 16.09 Partly Cloudy SCT080 25.6 19.4 69% 27 76 1012.0
05 00:52 E 6 16.09 Fair CLR 25.6 19.4 35.6 25 69% 27 75.97 1012.0
04 23:52 Calm 16.09 Fair CLR 25.6 19.4 69% 27 75.97 1012.0
04 22:52 Calm 16.09 Fair CLR 27.2 19.4 62% 29 76 1012.0
04 21:52 Calm 16.09 Fair CLR 28.3 19.4 59% 30 75.97 1011.8
04 20:52 S 7 16.09 Fair CLR 30.6 18.9 50% 32 75.9 1010.7
04 19:52 S 7 16.09 Fair CLR 33.3 18.9 43% 35 75.84 1010.4
04 18:52 S 15 16.09 Fair CLR 35.6 18.3 37.8 34.4 36% 37 75.87 1010.4
04 17:52 S 22 16.09 Fair CLR 37.2 18.3 33% 39 75.87 1010.4
04 16:52 S 24 G 35 16.09 Fair CLR 37.2 18.9 34% 39 75.87 1010.5
04 15:52 SW 20 G 33 16.09 Fair CLR 36.7 18.9 35% 39 75.9 1011.0
04 14:52 S 22 G 33 16.09 Fair CLR 36.7 18.9 35% 39 75.97 1011.8
04 13:52 S 20 16.09 Fair CLR 35.6 19.4 39% 38 76 1012.2
04 12:52 S 17 G 33 16.09 Fair CLR 34.4 19.4 35 22.2 41% 36 76.05 1012.8
04 11:52 S 24 16.09 Fair CLR 33.3 18.9 43% 35 76.1 1013.4
04 10:52 S 26 G 41 16.09 Fair CLR 32.2 19.4 47% 34 76.1 1013.6
04 09:52 S 19 16.09 Fair CLR 30.6 20.6 55% 33 76.1 1013.7
04 08:52 S 15 16.09 Fair CLR 27.8 21.1 67% 30 76.1 1013.7
04 07:52 SE 7 16.09 Fair CLR 24.4 20.6 79% 25 76.07 1013.5
04 06:52 E 6 16.09 Fair CLR 22.8 20 26.7 22.2 84% 76.07 1013.2
04 05:52 Calm 16.09 Fair CLR 23.3 20 82% 76.02 1012.7
04 04:52 SE 7 16.09 Fair CLR 23.9 20 79% 24 76.02 1012.5
04 03:52 SE 7 16.09 Fair CLR 23.9 20.6 82% 24 75.97 1011.9
04 02:52 S 7 16.09 Fair CLR 25.6 20.6 74% 27 75.95 1011.5
04 01:52 S 9 16.09 Fair CLR 26.1 21.1 74% 28 75.97 1011.7
04 00:52 S 7 16.09 Fair CLR 26.1 20.6 35 26.1 72% 28 75.95 1011.7
03 23:52 S 6 16.09 Fair CLR 27.8 20.6 65% 30 75.95 1011.4
03 22:52 S 9 16.09 Fair CLR 28.3 20.6 63% 30 75.92 1011.2
03 21:52 S 7 16.09 Fair CLR 30 20.6 57% 32 75.9 1011.0
03 20:52 S 11 16.09 Fair CLR 31.1 20.6 54% 34 75.84 1010.2
03 19:52 S 11 16.09 Fair CLR 32.8 20 47% 35 75.82 1009.8
03 18:52 S 22 16.09 Fair CLR 35 19.4 37.8 33.9 40% 37 75.79 1009.5
03 17:52 S 26 16.09 Fair CLR 36.7 19.4 36% 39 75.77 1009.2
03 16:52 S 28 16.09 Fair CLR 37.2 18.9 34% 39 75.79 1009.4
03 15:52 S 22 16.09 Fair CLR 36.7 18.3 34% 38 75.82 1010.0
03 14:52 S 22 G 35 16.09 Fair CLR 36.7 18.9 35% 39 75.87 1010.5
03 13:52 SW 26 G 41 16.09 Fair CLR 35.6 20 40% 38 75.95 1011.4
03 12:52 S 22 G 35 16.09 Fair CLR 34.4 20.6 34.4 23.9 44% 37 75.97 1012.0
03 11:52 S 24 G 37 16.09 Fair CLR 33.9 20 44% 36 76.05 1012.8
03 10:52 SW 24 16.09 Fair CLR 32.2 20 48% 34 76.07 1013.1
03 09:52 S 24 16.09 Fair CLR 30 20.6 57% 32 76.07 1013.3
03 08:52 S 19 16.09 Fair CLR 28.3 21.1 65% 31 76.12 1013.9
03 07:52 S 11 16.09 Fair CLR 25.6 20 71% 27 76.1 1013.7
03 06:52 S 11 16.09 Fair CLR 24.4 20 28.3 24.4 77% 25 76.05 1012.9
03 05:52 S 9 16.09 Fair CLR 25 20 74% 26 76.05 1012.8
03 04:52 S 9 16.09 Fair CLR 25.6 19.4 69% 27 76.05 1012.7
03 03:52 S 9 16.09 Fair CLR 25.6 18.9 67% 27 76.02 1012.4
03 02:52 S 11 16.09 Fair CLR 26.7 18.9 62% 28 76.02 1012.3
03 01:52 S 11 16.09 Fair CLR 27.8 18.3 56% 29 76 1012.1
03 00:52 S 11 16.09 Fair CLR 27.8 18.3 36.1 26.7 56% 29 75.97 1011.9
02 23:52 SE 9 16.09 Fair CLR 27.8 18.3 56% 29 75.97 1011.7
02 22:52 SE 6 16.09 Fair CLR 28.3 17.8 53% 29 75.95 1011.7
02 21:52 S 7 16.09 Fair CLR 30 17.8 48% 31 75.95 1011.5
02 20:52 S 7 16.09 Fair CLR 31.7 17.8 43% 32 75.9 1011.0
02 19:52 S 9 16.09 Fair CLR 32.8 17.8 41% 34 75.87 1010.6
02 18:52 S 19 16.09 Fair CLR 36.1 17.2 38.9 36.1 33% 37 75.9 1010.8
02 17:52 S 24 G 33 16.09 Fair CLR 37.8 17.2 30% 39 75.9 1010.9
02 16:52 S 19 16.09 Fair CLR 37.8 16.7 29% 39 75.92 1011.1
02 15:52 S 19 G 37 16.09 Fair CLR 37.8 16.7 29% 39 75.97 1011.7
02 14:52 S 15 16.09 Fair CLR 37.8 18.3 32% 40 76.02 1012.5
02 13:52 S 20 G 33 16.09 Fair CLR 37.8 17.8 31% 39 76.07 1013.3
02 12:52 S 17 G 31 16.09 Fair CLR 36.7 16.7 36.7 23.9 31% 37 76.15 1014.3
02 11:52 S 19 G 35 16.09 Fair CLR 35.6 18.9 37% 38 76.2 1014.9
02 10:52 S 22 16.09 Fair CLR 33.9 20 44% 36 76.23 1015.4
Date Time (cdt) Wind (kph) Vis. (km) Weather Sky Cond. Air Dwpt Max. Min. Relative Humidity Wind Chill (°C) Heat Index (°C) altimeter (cm) sea level (mb) 1 hr 3 hr 6 hr
6 hour
Temperature (ºC) Pressure Precipitation (cm)